Главная страница
METAR-TAF:

METAR-TAF

Аэропорты :

Басра (международный аэропорт)

Басра, Ирак

широта: 30-32-56N, долгота: 47-39-45E, высота над уровнем моря: 1 м

Текущие метеонаблюдения

Эта сводка был подготовлена 2 часа и 13 минут назад, в 00:00 UTC
Ветер 8 Узел от северо-западный
Температура 20°C
Влажность 78%
Давление 1016 hPa
Видимость: 7000 м

METAR: ORMM 270000Z 31008KT 7000 NSC 20/16 Q1016 NOSIG

Время: 05:13 (02:13 UTC)

Прогноз

Эта сводка был подготовлена 4 часа и 13 минут назад, в 22:00 UTC
Прогноз действительный с 27-го 00 UTC до 27-го 24 UTC
Ветер 8 Узел от северо-западный
Видимость: 7000 м
Вероятность 40% :
временами
С 27-го 01 UTC до 27-го 06 UTC
Видимость: 4000 м
дымка

TAF: ORMM 262200Z 2700/2724 31008KT 7000 NSC PROB40 TEMPO 2701/2706 4000 BR

Метеонаблюдения и прогнозы для более 4000 аэропортов (сводки METAR и TAF).

Имеющиеся станции представлены на карте желтыми и красными точками.

Чтобы увидеть название станции, наведите на нее мышь.

Затем щелкните, чтобы увидеть метеонаблюдения и метеопрогнозы.

Управление картой: чтобы увеличить масштаб, щелкните зеленые кнопки с черным крестиком; чтобы уменьшить масштаб, щелкните зеленую кнопку с тире; для просмотра соседних карт щелкайте зеленые стрелки.


METAR-TAF: